sensor_id;sensor_type;location;lat;lon;timestamp;P1;durP1;ratioP1;P2;durP2;ratioP2
35540;SDS011;21650;48.840;9.162;2022-11-20T00:01:22;38.53;;;12.27;;
35540;SDS011;21650;48.840;9.162;2022-11-20T00:03:50;22.90;;;11.47;;
35540;SDS011;21650;48.840;9.162;2022-11-20T00:06:17;34.33;;;11.63;;
35540;SDS011;21650;48.840;9.162;2022-11-20T00:08:44;25.17;;;11.97;;
35540;SDS011;21650;48.840;9.162;2022-11-20T00:11:17;27.17;;;12.50;;
35540;SDS011;21650;48.840;9.162;2022-11-20T00:13:46;21.47;;;11.40;;
35540;SDS011;21650;48.840;9.162;2022-11-20T00:16:14;24.93;;;12.67;;
35540;SDS011;21650;48.840;9.162;2022-11-20T00:18:42;19.53;;;11.80;;
35540;SDS011;21650;48.840;9.162;2022-11-20T00:21:16;24.63;;;12.27;;
35540;SDS011;21650;48.840;9.162;2022-11-20T00:23:43;18.83;;;11.70;;
35540;SDS011;21650;48.840;9.162;2022-11-20T00:26:10;21.27;;;12.83;;
35540;SDS011;21650;48.840;9.162;2022-11-20T00:28:37;21.33;;;11.63;;
35540;SDS011;21650;48.840;9.162;2022-11-20T00:31:04;22.50;;;11.53;;
35540;SDS011;21650;48.840;9.162;2022-11-20T00:33:31;30.00;;;12.27;;
35540;SDS011;21650;48.840;9.162;2022-11-20T00:36:07;27.33;;;12.57;;
35540;SDS011;21650;48.840;9.162;2022-11-20T00:38:37;21.23;;;10.97;;
35540;SDS011;21650;48.840;9.162;2022-11-20T00:41:04;29.33;;;12.90;;
35540;SDS011;21650;48.840;9.162;2022-11-20T00:43:31;24.63;;;10.37;;
35540;SDS011;21650;48.840;9.162;2022-11-20T00:46:01;34.80;;;12.60;;
35540;SDS011;21650;48.840;9.162;2022-11-20T00:48:28;27.27;;;12.97;;
35540;SDS011;21650;48.840;9.162;2022-11-20T00:50:54;22.07;;;10.93;;
35540;SDS011;21650;48.840;9.162;2022-11-20T00:53:20;21.40;;;12.13;;
35540;SDS011;21650;48.840;9.162;2022-11-20T00:55:53;27.53;;;13.63;;
35540;SDS011;21650;48.840;9.162;2022-11-20T00:58:23;24.47;;;11.90;;
35540;SDS011;21650;48.840;9.162;2022-11-20T01:00:50;26.20;;;12.93;;
35540;SDS011;21650;48.840;9.162;2022-11-20T01:03:17;24.53;;;12.63;;
35540;SDS011;21650;48.840;9.162;2022-11-20T01:05:42;28.73;;;13.67;;
35540;SDS011;21650;48.840;9.162;2022-11-20T01:08:08;22.80;;;13.53;;
35540;SDS011;21650;48.840;9.162;2022-11-20T01:10:34;28.90;;;13.13;;
35540;SDS011;21650;48.840;9.162;2022-11-20T01:12:59;26.13;;;14.03;;
35540;SDS011;21650;48.840;9.162;2022-11-20T01:15:43;34.03;;;15.40;;
35540;SDS011;21650;48.840;9.162;2022-11-20T01:18:09;24.23;;;13.53;;
35540;SDS011;21650;48.840;9.162;2022-11-20T01:20:35;18.57;;;11.27;;
35540;SDS011;21650;48.840;9.162;2022-11-20T01:23:01;21.57;;;12.50;;
35540;SDS011;21650;48.840;9.162;2022-11-20T01:25:28;24.07;;;11.97;;
35540;SDS011;21650;48.840;9.162;2022-11-20T01:27:54;18.03;;;11.57;;
35540;SDS011;21650;48.840;9.162;2022-11-20T01:30:19;24.03;;;11.23;;
35540;SDS011;21650;48.840;9.162;2022-11-20T01:32:45;21.13;;;10.90;;
35540;SDS011;21650;48.840;9.162;2022-11-20T01:35:10;22.03;;;10.70;;
35540;SDS011;21650;48.840;9.162;2022-11-20T01:37:36;16.50;;;9.83;;
35540;SDS011;21650;48.840;9.162;2022-11-20T01:40:02;19.43;;;10.97;;
35540;SDS011;21650;48.840;9.162;2022-11-20T01:42:27;16.73;;;9.60;;
35540;SDS011;21650;48.840;9.162;2022-11-20T01:48:12;19.30;;;11.27;;
35540;SDS011;21650;48.840;9.162;2022-11-20T01:50:38;16.77;;;10.80;;
35540;SDS011;21650;48.840;9.162;2022-11-20T01:53:06;17.43;;;10.17;;
35540;SDS011;21650;48.840;9.162;2022-11-20T01:55:36;15.90;;;10.33;;
35540;SDS011;21650;48.840;9.162;2022-11-20T01:58:07;18.10;;;9.97;;
35540;SDS011;21650;48.840;9.162;2022-11-20T02:00:33;18.40;;;10.37;;
35540;SDS011;21650;48.840;9.162;2022-11-20T02:03:00;17.30;;;11.17;;
35540;SDS011;21650;48.840;9.162;2022-11-20T02:05:38;38.00;;;11.63;;
35540;SDS011;21650;48.840;9.162;2022-11-20T02:08:11;17.47;;;10.30;;
35540;SDS011;21650;48.840;9.162;2022-11-20T02:10:37;16.77;;;9.50;;
35540;SDS011;21650;48.840;9.162;2022-11-20T02:13:03;17.33;;;10.37;;
35540;SDS011;21650;48.840;9.162;2022-11-20T02:15:48;12.70;;;9.47;;
35540;SDS011;21650;48.840;9.162;2022-11-20T02:18:14;15.77;;;9.53;;
35540;SDS011;21650;48.840;9.162;2022-11-20T02:20:43;17.67;;;10.37;;
35540;SDS011;21650;48.840;9.162;2022-11-20T02:23:23;11.80;;;8.23;;
35540;SDS011;21650;48.840;9.162;2022-11-20T02:26:10;15.00;;;9.40;;
35540;SDS011;21650;48.840;9.162;2022-11-20T02:28:39;15.97;;;9.20;;
35540;SDS011;21650;48.840;9.162;2022-11-20T02:31:04;14.33;;;8.73;;
35540;SDS011;21650;48.840;9.162;2022-11-20T02:33:30;14.53;;;9.67;;
35540;SDS011;21650;48.840;9.162;2022-11-20T02:35:55;12.73;;;9.37;;
35540;SDS011;21650;48.840;9.162;2022-11-20T02:38:21;13.93;;;8.93;;
35540;SDS011;21650;48.840;9.162;2022-11-20T02:40:47;13.70;;;8.43;;
35540;SDS011;21650;48.840;9.162;2022-11-20T02:43:12;11.80;;;7.50;;
35540;SDS011;21650;48.840;9.162;2022-11-20T02:45:38;13.17;;;8.13;;
35540;SDS011;21650;48.840;9.162;2022-11-20T02:48:05;11.00;;;6.90;;
35540;SDS011;21650;48.840;9.162;2022-11-20T02:50:31;9.57;;;6.53;;
35540;SDS011;21650;48.840;9.162;2022-11-20T02:52:57;11.70;;;6.60;;
35540;SDS011;21650;48.840;9.162;2022-11-20T02:55:22;8.20;;;6.10;;
35540;SDS011;21650;48.840;9.162;2022-11-20T02:57:48;8.10;;;5.20;;
35540;SDS011;21650;48.840;9.162;2022-11-20T03:00:13;6.17;;;4.53;;
35540;SDS011;21650;48.840;9.162;2022-11-20T03:02:39;6.70;;;5.10;;
35540;SDS011;21650;48.840;9.162;2022-11-20T03:05:05;7.60;;;3.90;;
35540;SDS011;21650;48.840;9.162;2022-11-20T03:07:31;8.80;;;4.57;;
35540;SDS011;21650;48.840;9.162;2022-11-20T03:09:56;7.27;;;4.10;;
35540;SDS011;21650;48.840;9.162;2022-11-20T03:12:22;6.17;;;3.17;;
35540;SDS011;21650;48.840;9.162;2022-11-20T03:14:47;5.00;;;3.40;;
35540;SDS011;21650;48.840;9.162;2022-11-20T03:17:13;6.43;;;3.37;;
35540;SDS011;21650;48.840;9.162;2022-11-20T03:19:38;3.60;;;3.13;;
35540;SDS011;21650;48.840;9.162;2022-11-20T03:22:04;5.93;;;3.47;;
35540;SDS011;21650;48.840;9.162;2022-11-20T03:24:30;4.20;;;3.23;;
35540;SDS011;21650;48.840;9.162;2022-11-20T03:26:55;6.10;;;3.17;;
35540;SDS011;21650;48.840;9.162;2022-11-20T03:29:21;3.57;;;3.27;;
35540;SDS011;21650;48.840;9.162;2022-11-20T03:31:46;4.20;;;3.27;;
35540;SDS011;21650;48.840;9.162;2022-11-20T03:34:12;3.93;;;2.93;;
35540;SDS011;21650;48.840;9.162;2022-11-20T03:36:38;5.23;;;3.63;;
35540;SDS011;21650;48.840;9.162;2022-11-20T03:39:05;4.00;;;3.10;;
35540;SDS011;21650;48.840;9.162;2022-11-20T03:41:35;3.53;;;2.97;;
35540;SDS011;21650;48.840;9.162;2022-11-20T03:44:02;7.87;;;3.37;;
35540;SDS011;21650;48.840;9.162;2022-11-20T03:46:30;3.50;;;2.70;;
35540;SDS011;21650;48.840;9.162;2022-11-20T03:48:56;4.20;;;2.93;;
35540;SDS011;21650;48.840;9.162;2022-11-20T03:51:26;3.07;;;2.73;;
35540;SDS011;21650;48.840;9.162;2022-11-20T03:53:58;5.00;;;3.03;;
35540;SDS011;21650;48.840;9.162;2022-11-20T03:56:26;3.97;;;3.40;;
35540;SDS011;21650;48.840;9.162;2022-11-20T03:58:56;4.70;;;3.67;;
35540;SDS011;21650;48.840;9.162;2022-11-20T04:01:25;5.57;;;4.17;;
35540;SDS011;21650;48.840;9.162;2022-11-20T04:03:53;4.80;;;3.43;;
35540;SDS011;21650;48.840;9.162;2022-11-20T04:06:21;4.33;;;3.20;;
35540;SDS011;21650;48.840;9.162;2022-11-20T04:09:05;4.57;;;3.13;;
35540;SDS011;21650;48.840;9.162;2022-11-20T04:11:32;6.43;;;3.10;;
35540;SDS011;21650;48.840;9.162;2022-11-20T04:14:02;4.80;;;3.40;;
35540;SDS011;21650;48.840;9.162;2022-11-20T04:16:30;4.73;;;2.80;;
35540;SDS011;21650;48.840;9.162;2022-11-20T04:18:58;7.20;;;3.33;;
35540;SDS011;21650;48.840;9.162;2022-11-20T04:21:25;5.87;;;3.10;;
35540;SDS011;21650;48.840;9.162;2022-11-20T04:23:51;4.70;;;2.80;;
35540;SDS011;21650;48.840;9.162;2022-11-20T04:26:18;4.67;;;3.67;;
35540;SDS011;21650;48.840;9.162;2022-11-20T04:28:44;4.57;;;3.23;;
35540;SDS011;21650;48.840;9.162;2022-11-20T04:31:12;4.40;;;3.30;;
35540;SDS011;21650;48.840;9.162;2022-11-20T04:33:39;4.57;;;3.37;;
35540;SDS011;21650;48.840;9.162;2022-11-20T04:36:06;3.70;;;3.20;;
35540;SDS011;21650;48.840;9.162;2022-11-20T04:38:39;6.57;;;3.33;;
35540;SDS011;21650;48.840;9.162;2022-11-20T04:41:06;5.20;;;3.50;;
35540;SDS011;21650;48.840;9.162;2022-11-20T04:43:33;6.20;;;3.70;;
35540;SDS011;21650;48.840;9.162;2022-11-20T04:45:59;4.03;;;3.17;;
35540;SDS011;21650;48.840;9.162;2022-11-20T04:48:26;6.97;;;3.63;;
35540;SDS011;21650;48.840;9.162;2022-11-20T04:50:53;4.70;;;3.40;;
35540;SDS011;21650;48.840;9.162;2022-11-20T04:53:19;5.27;;;3.43;;
35540;SDS011;21650;48.840;9.162;2022-11-20T04:55:45;6.80;;;3.93;;
35540;SDS011;21650;48.840;9.162;2022-11-20T04:58:12;6.83;;;3.70;;
35540;SDS011;21650;48.840;9.162;2022-11-20T05:00:37;6.27;;;3.37;;
35540;SDS011;21650;48.840;9.162;2022-11-20T05:03:03;4.30;;;3.70;;
35540;SDS011;21650;48.840;9.162;2022-11-20T05:05:29;7.70;;;4.17;;
35540;SDS011;21650;48.840;9.162;2022-11-20T05:07:57;7.90;;;4.37;;
35540;SDS011;21650;48.840;9.162;2022-11-20T05:10:27;5.70;;;3.60;;
35540;SDS011;21650;48.840;9.162;2022-11-20T05:12:52;6.40;;;3.93;;
35540;SDS011;21650;48.840;9.162;2022-11-20T05:15:18;4.07;;;3.63;;
35540;SDS011;21650;48.840;9.162;2022-11-20T05:17:50;4.03;;;3.07;;
35540;SDS011;21650;48.840;9.162;2022-11-20T05:20:17;4.80;;;3.50;;
35540;SDS011;21650;48.840;9.162;2022-11-20T05:22:43;3.77;;;3.33;;
35540;SDS011;21650;48.840;9.162;2022-11-20T05:25:09;4.43;;;3.50;;
35540;SDS011;21650;48.840;9.162;2022-11-20T05:27:35;6.43;;;3.30;;
35540;SDS011;21650;48.840;9.162;2022-11-20T05:30:01;7.47;;;3.67;;
35540;SDS011;21650;48.840;9.162;2022-11-20T05:32:28;4.43;;;3.20;;
35540;SDS011;21650;48.840;9.162;2022-11-20T05:34:53;3.57;;;3.27;;
35540;SDS011;21650;48.840;9.162;2022-11-20T05:37:19;4.77;;;3.07;;
35540;SDS011;21650;48.840;9.162;2022-11-20T05:39:44;3.77;;;2.93;;
35540;SDS011;21650;48.840;9.162;2022-11-20T05:42:10;4.27;;;3.30;;
35540;SDS011;21650;48.840;9.162;2022-11-20T05:44:54;4.40;;;3.90;;
35540;SDS011;21650;48.840;9.162;2022-11-20T05:47:20;4.17;;;3.23;;
35540;SDS011;21650;48.840;9.162;2022-11-20T05:49:45;6.00;;;3.63;;
35540;SDS011;21650;48.840;9.162;2022-11-20T05:52:11;3.50;;;2.97;;
35540;SDS011;21650;48.840;9.162;2022-11-20T05:54:36;4.67;;;3.10;;
35540;SDS011;21650;48.840;9.162;2022-11-20T05:57:02;4.13;;;3.20;;
35540;SDS011;21650;48.840;9.162;2022-11-20T05:59:28;4.23;;;3.30;;
35540;SDS011;21650;48.840;9.162;2022-11-20T06:01:53;3.70;;;3.17;;
35540;SDS011;21650;48.840;9.162;2022-11-20T06:04:19;5.57;;;3.00;;
35540;SDS011;21650;48.840;9.162;2022-11-20T06:06:44;3.67;;;2.63;;
35540;SDS011;21650;48.840;9.162;2022-11-20T06:09:10;6.10;;;3.40;;
35540;SDS011;21650;48.840;9.162;2022-11-20T06:11:35;2.93;;;2.63;;
35540;SDS011;21650;48.840;9.162;2022-11-20T06:14:01;3.20;;;2.83;;
35540;SDS011;21650;48.840;9.162;2022-11-20T06:16:27;4.80;;;3.17;;
35540;SDS011;21650;48.840;9.162;2022-11-20T06:18:52;3.70;;;3.00;;
35540;SDS011;21650;48.840;9.162;2022-11-20T06:21:19;3.40;;;3.07;;
35540;SDS011;21650;48.840;9.162;2022-11-20T06:23:46;4.23;;;2.47;;
35540;SDS011;21650;48.840;9.162;2022-11-20T06:26:13;5.83;;;2.70;;
35540;SDS011;21650;48.840;9.162;2022-11-20T06:28:41;3.13;;;2.80;;
35540;SDS011;21650;48.840;9.162;2022-11-20T06:31:07;3.67;;;2.50;;
35540;SDS011;21650;48.840;9.162;2022-11-20T06:33:35;2.90;;;2.23;;
35540;SDS011;21650;48.840;9.162;2022-11-20T06:36:01;6.27;;;2.83;;
35540;SDS011;21650;48.840;9.162;2022-11-20T06:38:27;4.33;;;2.50;;
35540;SDS011;21650;48.840;9.162;2022-11-20T06:40:53;3.50;;;2.30;;
35540;SDS011;21650;48.840;9.162;2022-11-20T06:43:20;3.13;;;2.73;;
35540;SDS011;21650;48.840;9.162;2022-11-20T06:45:45;5.23;;;2.40;;
35540;SDS011;21650;48.840;9.162;2022-11-20T06:48:11;5.00;;;2.60;;
35540;SDS011;21650;48.840;9.162;2022-11-20T06:50:37;5.07;;;2.60;;
35540;SDS011;21650;48.840;9.162;2022-11-20T06:53:03;3.27;;;2.07;;
35540;SDS011;21650;48.840;9.162;2022-11-20T06:55:30;2.97;;;2.50;;
35540;SDS011;21650;48.840;9.162;2022-11-20T06:57:56;2.27;;;2.07;;
35540;SDS011;21650;48.840;9.162;2022-11-20T07:00:22;2.13;;;1.90;;
35540;SDS011;21650;48.840;9.162;2022-11-20T07:02:48;3.43;;;2.27;;
35540;SDS011;21650;48.840;9.162;2022-11-20T07:05:13;3.10;;;1.70;;
35540;SDS011;21650;48.840;9.162;2022-11-20T07:07:39;1.97;;;1.67;;
35540;SDS011;21650;48.840;9.162;2022-11-20T07:10:05;2.80;;;1.80;;
35540;SDS011;21650;48.840;9.162;2022-11-20T07:12:31;3.90;;;2.27;;
35540;SDS011;21650;48.840;9.162;2022-11-20T07:14:56;3.20;;;2.10;;
35540;SDS011;21650;48.840;9.162;2022-11-20T07:17:22;2.87;;;1.83;;
35540;SDS011;21650;48.840;9.162;2022-11-20T07:19:47;2.37;;;1.97;;
35540;SDS011;21650;48.840;9.162;2022-11-20T07:22:13;2.13;;;1.40;;
35540;SDS011;21650;48.840;9.162;2022-11-20T07:24:38;2.20;;;1.67;;
35540;SDS011;21650;48.840;9.162;2022-11-20T07:27:04;2.37;;;1.93;;
35540;SDS011;21650;48.840;9.162;2022-11-20T07:29:30;3.20;;;1.47;;
35540;SDS011;21650;48.840;9.162;2022-11-20T07:31:56;2.47;;;1.80;;
35540;SDS011;21650;48.840;9.162;2022-11-20T07:34:21;2.33;;;1.70;;
35540;SDS011;21650;48.840;9.162;2022-11-20T07:36:47;1.43;;;1.33;;
35540;SDS011;21650;48.840;9.162;2022-11-20T07:39:13;2.50;;;2.10;;
35540;SDS011;21650;48.840;9.162;2022-11-20T07:41:39;4.90;;;1.70;;
35540;SDS011;21650;48.840;9.162;2022-11-20T07:44:04;2.70;;;2.10;;
35540;SDS011;21650;48.840;9.162;2022-11-20T07:46:30;4.03;;;1.67;;
35540;SDS011;21650;48.840;9.162;2022-11-20T07:48:56;2.73;;;2.20;;
35540;SDS011;21650;48.840;9.162;2022-11-20T07:51:22;1.77;;;1.67;;
35540;SDS011;21650;48.840;9.162;2022-11-20T07:53:47;2.83;;;2.13;;
35540;SDS011;21650;48.840;9.162;2022-11-20T07:56:16;6.30;;;2.13;;
35540;SDS011;21650;48.840;9.162;2022-11-20T07:58:41;3.40;;;2.03;;
35540;SDS011;21650;48.840;9.162;2022-11-20T08:01:07;2.20;;;1.70;;
35540;SDS011;21650;48.840;9.162;2022-11-20T08:03:33;6.50;;;2.27;;
35540;SDS011;21650;48.840;9.162;2022-11-20T08:06:00;2.20;;;1.90;;
35540;SDS011;21650;48.840;9.162;2022-11-20T08:08:26;2.73;;;1.73;;
35540;SDS011;21650;48.840;9.162;2022-11-20T08:10:52;2.73;;;1.97;;
35540;SDS011;21650;48.840;9.162;2022-11-20T08:13:38;4.07;;;2.37;;
35540;SDS011;21650;48.840;9.162;2022-11-20T08:16:22;3.27;;;1.67;;
35540;SDS011;21650;48.840;9.162;2022-11-20T08:18:48;2.77;;;1.90;;
35540;SDS011;21650;48.840;9.162;2022-11-20T08:21:13;2.23;;;1.87;;
35540;SDS011;21650;48.840;9.162;2022-11-20T08:23:39;2.47;;;2.03;;
35540;SDS011;21650;48.840;9.162;2022-11-20T08:26:04;4.27;;;2.00;;
35540;SDS011;21650;48.840;9.162;2022-11-20T08:28:30;2.23;;;1.90;;
35540;SDS011;21650;48.840;9.162;2022-11-20T08:30:59;2.20;;;1.83;;
35540;SDS011;21650;48.840;9.162;2022-11-20T08:33:25;4.43;;;2.00;;
35540;SDS011;21650;48.840;9.162;2022-11-20T08:35:51;2.30;;;2.10;;
35540;SDS011;21650;48.840;9.162;2022-11-20T08:38:17;2.87;;;1.97;;
35540;SDS011;21650;48.840;9.162;2022-11-20T08:40:42;1.60;;;1.30;;
35540;SDS011;21650;48.840;9.162;2022-11-20T08:43:28;1.87;;;1.40;;
35540;SDS011;21650;48.840;9.162;2022-11-20T08:45:55;1.10;;;1.00;;
35540;SDS011;21650;48.840;9.162;2022-11-20T08:48:21;3.43;;;1.30;;
35540;SDS011;21650;48.840;9.162;2022-11-20T08:50:47;1.37;;;1.03;;
35540;SDS011;21650;48.840;9.162;2022-11-20T08:53:12;0.97;;;0.97;;
35540;SDS011;21650;48.840;9.162;2022-11-20T08:55:38;1.57;;;1.10;;
35540;SDS011;21650;48.840;9.162;2022-11-20T08:58:04;2.27;;;1.00;;
35540;SDS011;21650;48.840;9.162;2022-11-20T09:00:31;1.40;;;0.80;;
35540;SDS011;21650;48.840;9.162;2022-11-20T09:02:57;0.70;;;0.70;;
35540;SDS011;21650;48.840;9.162;2022-11-20T09:05:23;0.90;;;0.70;;
35540;SDS011;21650;48.840;9.162;2022-11-20T09:07:49;1.70;;;0.80;;
35540;SDS011;21650;48.840;9.162;2022-11-20T09:10:15;2.57;;;0.80;;
35540;SDS011;21650;48.840;9.162;2022-11-20T09:12:40;2.27;;;0.90;;
35540;SDS011;21650;48.840;9.162;2022-11-20T09:15:06;1.20;;;0.70;;
35540;SDS011;21650;48.840;9.162;2022-11-20T09:17:32;1.93;;;0.90;;
35540;SDS011;21650;48.840;9.162;2022-11-20T09:19:58;0.87;;;0.80;;
35540;SDS011;21650;48.840;9.162;2022-11-20T09:22:23;3.63;;;0.90;;
35540;SDS011;21650;48.840;9.162;2022-11-20T09:24:49;1.43;;;0.80;;
35540;SDS011;21650;48.840;9.162;2022-11-20T09:27:15;1.03;;;1.03;;
35540;SDS011;21650;48.840;9.162;2022-11-20T09:29:45;1.00;;;0.80;;
35540;SDS011;21650;48.840;9.162;2022-11-20T09:32:11;0.67;;;0.50;;
35540;SDS011;21650;48.840;9.162;2022-11-20T09:34:36;0.60;;;0.53;;
35540;SDS011;21650;48.840;9.162;2022-11-20T09:37:02;0.90;;;0.77;;
35540;SDS011;21650;48.840;9.162;2022-11-20T09:39:28;3.67;;;0.60;;
35540;SDS011;21650;48.840;9.162;2022-11-20T09:51:03;2.27;;;0.90;;
35540;SDS011;21650;48.840;9.162;2022-11-20T09:56:19;1.20;;;0.60;;
35540;SDS011;21650;48.840;9.162;2022-11-20T09:58:47;2.27;;;1.10;;
35540;SDS011;21650;48.840;9.162;2022-11-20T10:01:16;1.00;;;0.77;;
35540;SDS011;21650;48.840;9.162;2022-11-20T10:06:31;0.70;;;0.70;;
35540;SDS011;21650;48.840;9.162;2022-11-20T10:09:04;0.93;;;0.90;;
35540;SDS011;21650;48.840;9.162;2022-11-20T10:14:35;1.17;;;0.90;;
35540;SDS011;21650;48.840;9.162;2022-11-20T10:22:58;1.97;;;1.00;;
35540;SDS011;21650;48.840;9.162;2022-11-20T10:28:39;2.80;;;1.33;;
35540;SDS011;21650;48.840;9.162;2022-11-20T10:31:54;1.90;;;1.10;;
35540;SDS011;21650;48.840;9.162;2022-11-20T10:37:22;2.23;;;1.10;;
35540;SDS011;21650;48.840;9.162;2022-11-20T10:42:41;1.03;;;0.80;;
35540;SDS011;21650;48.840;9.162;2022-11-20T10:45:16;2.20;;;1.30;;
35540;SDS011;21650;48.840;9.162;2022-11-20T10:47:55;2.53;;;1.33;;
35540;SDS011;21650;48.840;9.162;2022-11-20T10:50:35;2.10;;;1.10;;
35540;SDS011;21650;48.840;9.162;2022-11-20T10:53:06;6.47;;;1.10;;
35540;SDS011;21650;48.840;9.162;2022-11-20T10:55:57;1.23;;;0.80;;
35540;SDS011;21650;48.840;9.162;2022-11-20T10:58:38;1.67;;;1.13;;
35540;SDS011;21650;48.840;9.162;2022-11-20T11:01:28;2.10;;;1.40;;
35540;SDS011;21650;48.840;9.162;2022-11-20T11:03:54;1.90;;;1.40;;
35540;SDS011;21650;48.840;9.162;2022-11-20T11:06:28;1.23;;;1.10;;
35540;SDS011;21650;48.840;9.162;2022-11-20T11:08:56;2.07;;;1.50;;
35540;SDS011;21650;48.840;9.162;2022-11-20T11:11:26;2.97;;;1.33;;
35540;SDS011;21650;48.840;9.162;2022-11-20T11:14:07;2.73;;;1.30;;
35540;SDS011;21650;48.840;9.162;2022-11-20T11:16:34;1.47;;;1.23;;
35540;SDS011;21650;48.840;9.162;2022-11-20T11:19:04;1.87;;;1.33;;
35540;SDS011;21650;48.840;9.162;2022-11-20T11:21:31;2.20;;;1.57;;
35540;SDS011;21650;48.840;9.162;2022-11-20T11:23:57;2.83;;;1.43;;
35540;SDS011;21650;48.840;9.162;2022-11-20T11:26:28;1.90;;;1.60;;
35540;SDS011;21650;48.840;9.162;2022-11-20T11:34:12;2.33;;;2.00;;
35540;SDS011;21650;48.840;9.162;2022-11-20T11:36:39;3.87;;;2.20;;
35540;SDS011;21650;48.840;9.162;2022-11-20T11:39:08;2.23;;;1.60;;
35540;SDS011;21650;48.840;9.162;2022-11-20T11:41:38;2.20;;;1.87;;
35540;SDS011;21650;48.840;9.162;2022-11-20T11:44:18;3.60;;;2.27;;
35540;SDS011;21650;48.840;9.162;2022-11-20T11:49:47;5.03;;;2.00;;
35540;SDS011;21650;48.840;9.162;2022-11-20T11:52:14;2.60;;;2.00;;
35540;SDS011;21650;48.840;9.162;2022-11-20T11:57:28;2.47;;;1.70;;
35540;SDS011;21650;48.840;9.162;2022-11-20T12:00:08;3.90;;;1.83;;
35540;SDS011;21650;48.840;9.162;2022-11-20T12:05:17;1.73;;;1.30;;
35540;SDS011;21650;48.840;9.162;2022-11-20T12:13:20;1.70;;;1.60;;
35540;SDS011;21650;48.840;9.162;2022-11-20T12:15:59;5.23;;;1.20;;
35540;SDS011;21650;48.840;9.162;2022-11-20T12:18:26;3.57;;;1.80;;
35540;SDS011;21650;48.840;9.162;2022-11-20T12:21:09;4.87;;;1.50;;
35540;SDS011;21650;48.840;9.162;2022-11-20T12:40:27;1.23;;;1.00;;
35540;SDS011;21650;48.840;9.162;2022-11-20T12:43:11;2.73;;;0.90;;
35540;SDS011;21650;48.840;9.162;2022-11-20T13:00:14;2.77;;;1.47;;
35540;SDS011;21650;48.840;9.162;2022-11-20T13:08:37;1.37;;;0.70;;
35540;SDS011;21650;48.840;9.162;2022-11-20T13:16:33;1.50;;;1.07;;
35540;SDS011;21650;48.840;9.162;2022-11-20T13:19:10;2.47;;;0.97;;
35540;SDS011;21650;48.840;9.162;2022-11-20T13:21:39;2.90;;;0.80;;
35540;SDS011;21650;48.840;9.162;2022-11-20T13:24:07;4.57;;;0.90;;
35540;SDS011;21650;48.840;9.162;2022-11-20T13:27:16;1.30;;;0.93;;
35540;SDS011;21650;48.840;9.162;2022-11-20T13:29:45;3.73;;;1.00;;
35540;SDS011;21650;48.840;9.162;2022-11-20T13:32:32;3.77;;;1.07;;
35540;SDS011;21650;48.840;9.162;2022-11-20T13:35:01;1.00;;;0.90;;
35540;SDS011;21650;48.840;9.162;2022-11-20T13:40:04;0.83;;;0.70;;
35540;SDS011;21650;48.840;9.162;2022-11-20T13:45:24;2.30;;;0.80;;
35540;SDS011;21650;48.840;9.162;2022-11-20T13:47:56;2.83;;;0.83;;
35540;SDS011;21650;48.840;9.162;2022-11-20T13:53:10;2.93;;;1.10;;
35540;SDS011;21650;48.840;9.162;2022-11-20T13:59:17;1.33;;;0.70;;
35540;SDS011;21650;48.840;9.162;2022-11-20T14:01:58;1.90;;;0.90;;
35540;SDS011;21650;48.840;9.162;2022-11-20T14:04:26;1.80;;;0.90;;
35540;SDS011;21650;48.840;9.162;2022-11-20T14:06:57;3.13;;;0.90;;
35540;SDS011;21650;48.840;9.162;2022-11-20T14:09:31;2.87;;;0.90;;
35540;SDS011;21650;48.840;9.162;2022-11-20T14:11:58;1.20;;;0.80;;
35540;SDS011;21650;48.840;9.162;2022-11-20T14:14:28;3.33;;;0.83;;
35540;SDS011;21650;48.840;9.162;2022-11-20T14:17:05;3.07;;;1.20;;
35540;SDS011;21650;48.840;9.162;2022-11-20T14:19:41;2.23;;;0.90;;
35540;SDS011;21650;48.840;9.162;2022-11-20T14:22:14;1.83;;;0.70;;
35540;SDS011;21650;48.840;9.162;2022-11-20T14:24:46;2.17;;;0.70;;
35540;SDS011;21650;48.840;9.162;2022-11-20T14:27:16;3.73;;;1.10;;
35540;SDS011;21650;48.840;9.162;2022-11-20T14:29:49;2.17;;;1.00;;
35540;SDS011;21650;48.840;9.162;2022-11-20T14:32:18;2.13;;;1.00;;
35540;SDS011;21650;48.840;9.162;2022-11-20T14:34:47;2.60;;;1.10;;
35540;SDS011;21650;48.840;9.162;2022-11-20T14:37:20;1.67;;;1.00;;
35540;SDS011;21650;48.840;9.162;2022-11-20T14:39:52;3.07;;;1.10;;
35540;SDS011;21650;48.840;9.162;2022-11-20T14:42:20;1.13;;;1.00;;
35540;SDS011;21650;48.840;9.162;2022-11-20T14:44:48;4.10;;;0.90;;
35540;SDS011;21650;48.840;9.162;2022-11-20T14:47:16;2.87;;;1.03;;
35540;SDS011;21650;48.840;9.162;2022-11-20T14:49:47;1.97;;;0.93;;
35540;SDS011;21650;48.840;9.162;2022-11-20T14:52:14;1.20;;;1.10;;
35540;SDS011;21650;48.840;9.162;2022-11-20T14:54:43;0.77;;;0.77;;
35540;SDS011;21650;48.840;9.162;2022-11-20T14:57:18;2.43;;;0.83;;
35540;SDS011;21650;48.840;9.162;2022-11-20T14:59:51;4.27;;;2.13;;
35540;SDS011;21650;48.840;9.162;2022-11-20T15:02:44;2.37;;;1.23;;
35540;SDS011;21650;48.840;9.162;2022-11-20T15:05:11;2.37;;;1.53;;
35540;SDS011;21650;48.840;9.162;2022-11-20T15:07:39;2.10;;;1.43;;
35540;SDS011;21650;48.840;9.162;2022-11-20T15:10:11;3.60;;;2.23;;
35540;SDS011;21650;48.840;9.162;2022-11-20T15:12:51;3.27;;;1.90;;
35540;SDS011;21650;48.840;9.162;2022-11-20T15:15:20;3.20;;;1.70;;
35540;SDS011;21650;48.840;9.162;2022-11-20T15:17:58;4.97;;;3.00;;
35540;SDS011;21650;48.840;9.162;2022-11-20T15:20:26;8.57;;;4.43;;
35540;SDS011;21650;48.840;9.162;2022-11-20T15:22:54;13.47;;;7.83;;
35540;SDS011;21650;48.840;9.162;2022-11-20T15:25:20;20.40;;;12.10;;
35540;SDS011;21650;48.840;9.162;2022-11-20T15:27:46;19.97;;;10.13;;
35540;SDS011;21650;48.840;9.162;2022-11-20T15:30:17;10.37;;;6.17;;
35540;SDS011;21650;48.840;9.162;2022-11-20T15:32:45;3.20;;;1.90;;
35540;SDS011;21650;48.840;9.162;2022-11-20T15:35:11;4.37;;;2.63;;
35540;SDS011;21650;48.840;9.162;2022-11-20T15:37:37;4.03;;;3.00;;
35540;SDS011;21650;48.840;9.162;2022-11-20T15:40:04;3.63;;;1.80;;
35540;SDS011;21650;48.840;9.162;2022-11-20T15:42:31;1.80;;;1.37;;
35540;SDS011;21650;48.840;9.162;2022-11-20T15:44:57;2.10;;;1.60;;
35540;SDS011;21650;48.840;9.162;2022-11-20T15:47:24;5.53;;;2.17;;
35540;SDS011;21650;48.840;9.162;2022-11-20T15:49:53;4.17;;;2.40;;
35540;SDS011;21650;48.840;9.162;2022-11-20T15:52:18;9.20;;;3.00;;
35540;SDS011;21650;48.840;9.162;2022-11-20T15:54:44;2.93;;;1.97;;
35540;SDS011;21650;48.840;9.162;2022-11-20T15:57:09;4.73;;;2.00;;
35540;SDS011;21650;48.840;9.162;2022-11-20T15:59:35;5.57;;;1.40;;
35540;SDS011;21650;48.840;9.162;2022-11-20T16:02:08;4.23;;;1.80;;
35540;SDS011;21650;48.840;9.162;2022-11-20T16:04:38;2.27;;;1.57;;
35540;SDS011;21650;48.840;9.162;2022-11-20T16:07:04;5.60;;;2.03;;
35540;SDS011;21650;48.840;9.162;2022-11-20T16:09:29;1.97;;;1.63;;
35540;SDS011;21650;48.840;9.162;2022-11-20T16:11:55;3.87;;;2.07;;
35540;SDS011;21650;48.840;9.162;2022-11-20T16:14:24;3.83;;;1.93;;
35540;SDS011;21650;48.840;9.162;2022-11-20T16:17:08;2.47;;;1.63;;
35540;SDS011;21650;48.840;9.162;2022-11-20T16:19:34;3.93;;;1.60;;
35540;SDS011;21650;48.840;9.162;2022-11-20T16:21:59;3.87;;;1.60;;
35540;SDS011;21650;48.840;9.162;2022-11-20T16:24:26;1.93;;;1.43;;
35540;SDS011;21650;48.840;9.162;2022-11-20T16:26:52;5.13;;;1.67;;
35540;SDS011;21650;48.840;9.162;2022-11-20T16:29:19;37.40;;;16.37;;
35540;SDS011;21650;48.840;9.162;2022-11-20T16:31:44;29.13;;;14.20;;
35540;SDS011;21650;48.840;9.162;2022-11-20T16:34:10;21.53;;;11.03;;
35540;SDS011;21650;48.840;9.162;2022-11-20T16:36:35;27.27;;;13.77;;
35540;SDS011;21650;48.840;9.162;2022-11-20T16:39:04;60.93;;;29.17;;
35540;SDS011;21650;48.840;9.162;2022-11-20T16:41:31;61.73;;;31.50;;